createdAt,value
2022-10-13T00:01:27.351Z,99.90
2022-10-13T00:03:55.561Z,99.90
2022-10-13T00:06:25.361Z,99.90
2022-10-13T00:08:58.844Z,99.90
2022-10-13T00:11:27.548Z,99.90
2022-10-13T00:13:58.030Z,99.90
2022-10-13T00:16:26.427Z,99.90
2022-10-13T00:18:54.008Z,99.90
2022-10-13T00:21:24.233Z,99.90
2022-10-13T00:23:52.602Z,99.90
2022-10-13T00:26:22.192Z,99.90
2022-10-13T00:28:52.787Z,99.90
2022-10-13T00:31:22.188Z,99.90
2022-10-13T00:33:50.452Z,99.90
2022-10-13T00:36:26.317Z,99.90
2022-10-13T00:38:59.154Z,99.90
2022-10-13T00:41:28.290Z,99.90
2022-10-13T00:44:03.040Z,99.90
2022-10-13T00:46:32.253Z,99.90
2022-10-13T00:49:02.796Z,99.90
2022-10-13T00:51:33.713Z,99.90
2022-10-13T00:54:02.396Z,99.90
2022-10-13T00:56:30.769Z,99.90
2022-10-13T00:59:00.186Z,99.90
2022-10-13T01:01:27.853Z,99.90
2022-10-13T01:03:55.507Z,99.90
2022-10-13T01:06:24.067Z,99.90
2022-10-13T01:08:54.932Z,99.90
2022-10-13T01:11:22.836Z,99.90
2022-10-13T01:13:56.404Z,99.90
2022-10-13T01:16:30.201Z,99.90
2022-10-13T01:19:16.725Z,99.90
2022-10-13T01:21:47.466Z,99.90
2022-10-13T01:24:30.653Z,99.90
2022-10-13T01:27:06.058Z,99.90
2022-10-13T01:29:52.740Z,99.90
2022-10-13T01:32:34.985Z,99.90
2022-10-13T01:35:06.507Z,99.90
2022-10-13T01:37:57.165Z,99.90
2022-10-13T01:40:53.494Z,99.90
2022-10-13T01:43:28.557Z,99.90
2022-10-13T01:46:02.839Z,99.90
2022-10-13T01:48:32.880Z,99.90
2022-10-13T01:51:01.896Z,99.90
2022-10-13T01:53:30.535Z,99.90
2022-10-13T01:55:59.985Z,99.90
2022-10-13T01:58:36.739Z,99.90
2022-10-13T02:06:09.191Z,99.90
2022-10-13T02:08:48.354Z,99.90
2022-10-13T02:11:19.548Z,99.90
2022-10-13T02:13:54.359Z,99.90
2022-10-13T02:16:28.954Z,99.90
2022-10-13T02:19:05.166Z,99.90
2022-10-13T02:21:33.271Z,99.90
2022-10-13T02:24:09.782Z,99.90
2022-10-13T02:26:38.369Z,99.90
2022-10-13T02:29:19.113Z,99.90
2022-10-13T02:31:48.753Z,99.90
2022-10-13T02:34:16.533Z,99.90
2022-10-13T02:36:47.467Z,99.90
2022-10-13T02:39:19.823Z,99.90
2022-10-13T02:41:47.744Z,99.90
2022-10-13T02:44:21.292Z,99.90
2022-10-13T02:46:49.681Z,99.90
2022-10-13T02:49:17.821Z,99.90
2022-10-13T02:51:45.342Z,99.90
2022-10-13T02:54:13.623Z,99.90
2022-10-13T02:56:41.712Z,99.90
2022-10-13T02:59:09.555Z,99.90
2022-10-13T03:01:41.462Z,99.90
2022-10-13T03:04:09.283Z,99.90
2022-10-13T03:06:37.044Z,99.90
2022-10-13T03:09:05.404Z,99.90
2022-10-13T03:11:33.390Z,99.90
2022-10-13T03:14:00.886Z,99.90
2022-10-13T03:16:28.792Z,99.90
2022-10-13T03:18:56.457Z,99.90
2022-10-13T03:21:24.208Z,99.90
2022-10-13T03:23:51.870Z,99.90
2022-10-13T03:26:20.209Z,99.90
2022-10-13T03:28:54.916Z,99.90
2022-10-13T03:31:22.666Z,99.90
2022-10-13T03:33:51.883Z,99.90
2022-10-13T03:36:20.468Z,99.90
2022-10-13T03:38:53.871Z,99.90
2022-10-13T03:41:23.152Z,99.90
2022-10-13T03:43:51.944Z,99.90
2022-10-13T03:46:21.063Z,99.90
2022-10-13T03:48:49.709Z,99.90
2022-10-13T03:51:19.825Z,99.90
2022-10-13T03:53:50.299Z,99.90
2022-10-13T03:56:20.548Z,99.90
2022-10-13T03:58:55.737Z,99.90
2022-10-13T04:01:24.599Z,99.90
2022-10-13T04:03:52.772Z,99.90
2022-10-13T04:06:21.822Z,99.90
2022-10-13T04:08:49.872Z,99.90
2022-10-13T04:11:17.979Z,99.90
2022-10-13T04:13:52.721Z,99.90
2022-10-13T04:16:23.495Z,99.90
2022-10-13T04:18:55.230Z,99.90
2022-10-13T04:21:23.432Z,99.90
2022-10-13T04:23:54.246Z,99.90
2022-10-13T04:26:22.689Z,99.90
2022-10-13T04:28:52.053Z,99.90
2022-10-13T04:31:22.075Z,99.90
2022-10-13T04:33:50.653Z,99.90
2022-10-13T04:36:19.092Z,99.90
2022-10-13T04:38:48.847Z,99.90
2022-10-13T04:41:17.597Z,99.90
2022-10-13T04:43:50.448Z,99.90
2022-10-13T04:46:20.365Z,99.90
2022-10-13T04:48:59.894Z,99.90
2022-10-13T04:51:32.985Z,99.90
2022-10-13T04:54:05.637Z,99.90
2022-10-13T04:56:33.403Z,99.90
2022-10-13T04:59:05.946Z,99.90
2022-10-13T05:01:34.391Z,99.90
2022-10-13T05:04:06.409Z,99.90
2022-10-13T05:06:53.327Z,99.90
2022-10-13T05:09:26.708Z,99.90
2022-10-13T05:11:57.548Z,99.90
2022-10-13T05:14:25.170Z,99.90
2022-10-13T05:16:53.008Z,99.90
2022-10-13T05:19:20.974Z,99.90
2022-10-13T05:21:49.831Z,99.90
2022-10-13T05:24:31.177Z,99.90
2022-10-13T05:26:59.210Z,99.90
2022-10-13T05:29:30.746Z,99.90
2022-10-13T05:31:58.512Z,99.90
2022-10-13T05:34:30.023Z,99.90
2022-10-13T05:36:58.104Z,99.90
2022-10-13T05:39:34.108Z,99.90
2022-10-13T05:42:01.700Z,99.90
2022-10-13T05:44:29.862Z,99.90
2022-10-13T05:46:59.588Z,99.90
2022-10-13T05:49:29.919Z,99.90
2022-10-13T05:52:00.923Z,99.90
2022-10-13T05:54:32.049Z,99.90
2022-10-13T05:57:05.167Z,99.90
2022-10-13T05:59:35.475Z,99.90
2022-10-13T06:02:03.470Z,99.90
2022-10-13T06:04:34.623Z,99.90
2022-10-13T06:07:02.933Z,99.90
2022-10-13T06:09:35.488Z,99.90
2022-10-13T06:12:04.162Z,99.90
2022-10-13T06:14:32.376Z,99.90
2022-10-13T06:17:05.594Z,99.90
2022-10-13T06:19:34.575Z,99.90
2022-10-13T06:22:08.299Z,99.90
2022-10-13T06:24:36.117Z,99.90
2022-10-13T06:27:06.787Z,99.90
2022-10-13T06:29:34.967Z,99.90
2022-10-13T06:32:02.955Z,99.90
2022-10-13T06:34:30.862Z,99.90
2022-10-13T06:36:59.601Z,99.90
2022-10-13T06:39:28.005Z,99.90
2022-10-13T06:41:55.946Z,99.90
2022-10-13T06:44:32.175Z,99.90
2022-10-13T06:47:03.516Z,99.90
2022-10-13T06:49:31.599Z,99.90
2022-10-13T06:51:59.799Z,99.90
2022-10-13T06:54:29.483Z,99.90
2022-10-13T06:56:57.140Z,99.90
2022-10-13T06:59:26.739Z,99.90
2022-10-13T07:01:54.735Z,99.90
2022-10-13T07:04:23.097Z,99.90
2022-10-13T07:06:53.932Z,99.90
2022-10-13T07:09:53.764Z,99.90
2022-10-13T07:12:22.663Z,99.90
2022-10-13T07:14:50.728Z,99.90
2022-10-13T07:17:22.573Z,99.90
2022-10-13T07:19:51.439Z,99.90
2022-10-13T07:22:23.815Z,99.90
2022-10-13T07:24:52.357Z,99.90
2022-10-13T07:27:21.455Z,99.90
2022-10-13T07:29:50.352Z,99.90
2022-10-13T07:32:22.059Z,99.90
2022-10-13T07:34:52.036Z,99.90
2022-10-13T07:37:20.289Z,99.90
2022-10-13T07:39:48.258Z,99.90
2022-10-13T07:42:17.381Z,99.90
2022-10-13T07:44:45.399Z,99.90
2022-10-13T07:47:14.258Z,99.90
2022-10-13T07:49:43.005Z,99.90
2022-10-13T07:52:11.263Z,99.90
2022-10-13T07:54:39.150Z,99.90
2022-10-13T07:57:07.070Z,99.90
2022-10-13T07:59:37.024Z,99.90
2022-10-13T08:02:04.959Z,99.90
2022-10-13T08:04:34.529Z,99.90
2022-10-13T08:07:10.209Z,99.90
2022-10-13T08:09:38.672Z,99.90
2022-10-13T08:12:06.253Z,99.90
2022-10-13T08:14:34.058Z,99.90
2022-10-13T08:17:07.240Z,99.90
2022-10-13T08:19:36.754Z,99.90
2022-10-13T08:22:09.186Z,99.90
2022-10-13T08:24:37.945Z,99.90
2022-10-13T08:27:14.209Z,99.90
2022-10-13T08:29:43.733Z,99.90
2022-10-13T08:32:11.467Z,99.90
2022-10-13T08:34:39.594Z,99.90
2022-10-13T08:37:21.926Z,99.90
2022-10-13T08:39:49.976Z,99.90
2022-10-13T08:42:20.797Z,99.90
2022-10-13T08:45:28.793Z,99.90
2022-10-13T08:47:46.907Z,99.90
2022-10-13T08:50:16.206Z,99.90
2022-10-13T08:52:48.554Z,99.90
2022-10-13T08:55:29.947Z,99.90
2022-10-13T08:57:57.707Z,99.90
2022-10-13T09:00:29.626Z,99.90
2022-10-13T09:03:15.216Z,99.90
2022-10-13T09:05:50.017Z,99.90
2022-10-13T09:08:23.598Z,99.90
2022-10-13T09:10:51.464Z,99.90
2022-10-13T09:13:20.345Z,99.90
2022-10-13T09:15:51.071Z,99.90
2022-10-13T09:18:19.845Z,99.90
2022-10-13T09:20:49.233Z,99.90
2022-10-13T09:23:21.368Z,99.90
2022-10-13T09:25:51.892Z,99.90
2022-10-13T09:28:23.318Z,99.90
2022-10-13T09:31:13.171Z,99.90
2022-10-13T09:33:41.711Z,99.90
2022-10-13T09:36:15.472Z,99.90
2022-10-13T09:39:05.245Z,99.90
2022-10-13T09:41:34.086Z,99.90
2022-10-13T09:44:08.433Z,99.90
2022-10-13T09:46:36.047Z,99.90
2022-10-13T09:49:06.033Z,99.90
2022-10-13T09:51:37.382Z,99.90
2022-10-13T09:54:50.290Z,99.90
2022-10-13T09:57:26.270Z,99.90
2022-10-13T09:59:59.269Z,99.90
2022-10-13T10:02:33.233Z,99.90
2022-10-13T10:05:23.197Z,99.90
2022-10-13T10:07:52.900Z,99.90
2022-10-13T10:10:40.618Z,99.90
2022-10-13T10:13:16.596Z,99.90
2022-10-13T10:15:55.889Z,99.90
2022-10-13T10:18:53.859Z,99.90
2022-10-13T10:21:43.405Z,99.90
2022-10-13T10:24:29.755Z,99.90
2022-10-13T10:27:03.953Z,99.90
2022-10-13T10:29:41.704Z,98.00
2022-10-13T10:32:35.779Z,93.70
2022-10-13T10:35:16.240Z,96.00
2022-10-13T10:37:59.952Z,94.20
2022-10-13T10:40:33.233Z,98.40
2022-10-13T10:43:28.503Z,95.60
2022-10-13T10:45:59.336Z,92.00
2022-10-13T10:48:33.015Z,80.90
2022-10-13T10:51:01.390Z,73.80
2022-10-13T10:53:48.989Z,69.40
2022-10-13T10:56:49.727Z,65.50
2022-10-13T10:59:18.237Z,64.60
2022-10-13T11:02:04.422Z,64.50
2022-10-13T11:04:42.151Z,64.70
2022-10-13T11:07:12.950Z,63.00
2022-10-13T11:09:42.776Z,65.80
2022-10-13T11:12:19.269Z,68.90
2022-10-13T11:15:03.243Z,72.10
2022-10-13T11:17:41.105Z,71.70
2022-10-13T11:20:26.019Z,75.60
2022-10-13T11:23:00.119Z,73.90
2022-10-13T11:25:40.966Z,80.00
2022-10-13T11:28:23.345Z,78.70
2022-10-13T11:31:16.019Z,79.60
2022-10-13T11:33:44.663Z,77.20
2022-10-13T11:36:37.132Z,79.20
2022-10-13T11:39:26.342Z,81.00
2022-10-13T11:42:03.380Z,81.40
2022-10-13T11:44:51.264Z,84.00
2022-10-13T11:47:34.198Z,85.50
2022-10-13T11:50:26.475Z,85.70
2022-10-13T11:52:57.365Z,88.80
2022-10-13T11:55:27.920Z,90.80
2022-10-13T11:58:17.230Z,93.20
2022-10-13T12:01:14.895Z,91.60
2022-10-13T12:03:43.792Z,88.60
2022-10-13T12:06:21.387Z,77.20
2022-10-13T12:08:49.882Z,78.70
2022-10-13T12:11:24.432Z,73.20
2022-10-13T12:13:53.707Z,74.10
2022-10-13T12:16:23.371Z,71.00
2022-10-13T12:18:51.684Z,69.50
2022-10-13T12:21:21.273Z,70.30
2022-10-13T12:23:49.978Z,70.50
2022-10-13T12:26:18.364Z,74.10
2022-10-13T12:28:55.361Z,74.60
2022-10-13T12:31:26.288Z,75.10
2022-10-13T12:33:58.659Z,76.00
2022-10-13T12:36:30.069Z,75.20
2022-10-13T12:39:02.656Z,73.90
2022-10-13T12:41:43.738Z,71.40
2022-10-13T12:44:16.515Z,64.90
2022-10-13T12:46:45.884Z,66.60
2022-10-13T12:51:49.600Z,71.00
2022-10-13T12:54:30.873Z,71.20
2022-10-13T12:57:00.404Z,74.00
2022-10-13T12:59:29.086Z,80.00
2022-10-13T13:01:58.206Z,82.70
2022-10-13T13:04:30.230Z,86.40
2022-10-13T13:06:59.172Z,90.20
2022-10-13T13:09:30.168Z,88.50
2022-10-13T13:12:16.196Z,90.40
2022-10-13T13:14:49.476Z,90.40
2022-10-13T13:17:38.433Z,92.40
2022-10-13T13:20:19.060Z,93.80
2022-10-13T13:22:52.887Z,93.10
2022-10-13T13:25:20.423Z,92.50
2022-10-13T13:27:48.524Z,92.60
2022-10-13T13:30:18.599Z,93.60
2022-10-13T13:32:48.067Z,93.40
2022-10-13T13:35:15.977Z,93.30
2022-10-13T13:37:48.990Z,93.80
2022-10-13T13:40:19.612Z,94.40
2022-10-13T13:43:19.986Z,93.90
2022-10-13T13:45:48.448Z,94.10
2022-10-13T13:48:16.782Z,95.70
2022-10-13T13:50:52.163Z,94.40
2022-10-13T13:53:25.334Z,93.30
2022-10-13T13:55:54.679Z,92.80
2022-10-13T13:58:24.228Z,93.50
2022-10-13T14:00:52.901Z,94.20
2022-10-13T14:03:20.493Z,94.90
2022-10-13T14:05:49.383Z,94.80
2022-10-13T14:08:20.127Z,95.60
2022-10-13T14:10:47.720Z,95.50
2022-10-13T14:13:18.898Z,95.20
2022-10-13T14:15:56.428Z,95.80
2022-10-13T14:18:26.050Z,96.00
2022-10-13T14:20:53.590Z,97.60
2022-10-13T14:23:21.472Z,98.10
2022-10-13T14:25:48.928Z,99.90
2022-10-13T14:28:18.458Z,99.90
2022-10-13T14:30:46.789Z,99.90
2022-10-13T14:33:19.278Z,99.90
2022-10-13T14:36:07.503Z,99.90
2022-10-13T14:38:38.916Z,99.90
2022-10-13T14:41:06.640Z,99.90
2022-10-13T14:43:34.643Z,99.90
2022-10-13T14:46:03.741Z,99.90
2022-10-13T14:48:31.851Z,99.90
2022-10-13T14:51:00.143Z,99.90
2022-10-13T14:53:28.510Z,99.90
2022-10-13T14:55:56.217Z,99.90
2022-10-13T14:58:24.412Z,99.90
2022-10-13T15:00:53.941Z,99.90
2022-10-13T15:03:22.995Z,99.90
2022-10-13T15:05:50.748Z,99.90
2022-10-13T15:08:19.295Z,99.90
2022-10-13T15:10:47.238Z,99.90
2022-10-13T15:13:15.464Z,99.90
2022-10-13T15:15:48.154Z,99.90
2022-10-13T15:18:19.748Z,99.90
2022-10-13T15:20:48.639Z,99.90
2022-10-13T15:23:17.183Z,99.90
2022-10-13T15:25:51.848Z,99.90
2022-10-13T15:28:21.911Z,99.90
2022-10-13T15:30:49.714Z,99.90
2022-10-13T15:33:17.737Z,99.90
2022-10-13T15:35:47.682Z,99.90
2022-10-13T15:41:23.296Z,99.90
2022-10-13T15:43:51.799Z,99.90
2022-10-13T15:46:26.289Z,99.90
2022-10-13T15:48:55.239Z,99.90
2022-10-13T15:51:24.402Z,99.90
2022-10-13T15:53:52.288Z,99.90
2022-10-13T15:56:20.383Z,99.90
2022-10-13T15:58:48.516Z,99.90
2022-10-13T16:01:16.897Z,99.90
2022-10-13T16:03:44.666Z,99.90
2022-10-13T16:06:13.870Z,99.90
2022-10-13T16:08:44.281Z,99.90
2022-10-13T16:11:13.593Z,99.90
2022-10-13T16:13:41.646Z,99.90
2022-10-13T16:16:19.208Z,99.90
2022-10-13T16:18:47.571Z,99.90
2022-10-13T16:21:21.757Z,99.90
2022-10-13T16:23:49.834Z,99.90
2022-10-13T16:26:19.063Z,99.90
2022-10-13T16:28:48.747Z,99.90
2022-10-13T16:31:17.136Z,99.90
2022-10-13T16:33:45.171Z,99.90
2022-10-13T16:36:18.223Z,99.90
2022-10-13T16:38:46.639Z,99.90
2022-10-13T16:41:18.950Z,99.90
2022-10-13T16:43:48.395Z,99.90
2022-10-13T16:46:18.506Z,99.90
2022-10-13T16:48:47.590Z,99.90
2022-10-13T16:51:16.707Z,99.90
2022-10-13T16:53:50.250Z,99.90
2022-10-13T16:56:22.349Z,99.90
2022-10-13T16:58:56.665Z,99.90
2022-10-13T17:01:24.650Z,99.90
2022-10-13T17:03:52.420Z,99.90
2022-10-13T17:06:30.734Z,99.90
2022-10-13T17:08:59.174Z,99.90
2022-10-13T17:11:28.693Z,99.90
2022-10-13T17:13:56.989Z,99.90
2022-10-13T17:16:30.349Z,99.90
2022-10-13T17:18:59.374Z,99.90
2022-10-13T17:21:34.176Z,99.90
2022-10-13T17:24:01.997Z,99.90
2022-10-13T17:27:02.538Z,99.90
2022-10-13T17:29:30.749Z,99.90
2022-10-13T17:31:58.549Z,99.90
2022-10-13T17:34:33.206Z,99.90
2022-10-13T17:37:04.713Z,99.90
2022-10-13T17:39:32.207Z,99.90
2022-10-13T17:41:59.813Z,99.90
2022-10-13T17:44:32.072Z,99.90
2022-10-13T17:46:59.823Z,99.90
2022-10-13T17:49:27.773Z,99.90
2022-10-13T17:51:55.481Z,99.90
2022-10-13T17:54:25.060Z,99.90
2022-10-13T17:57:25.599Z,99.90
2022-10-13T17:59:55.946Z,99.90
2022-10-13T18:02:27.639Z,99.90
2022-10-13T18:04:55.592Z,99.90
2022-10-13T18:07:26.344Z,99.90
2022-10-13T18:09:58.157Z,99.90
2022-10-13T18:12:27.456Z,99.90
2022-10-13T18:14:57.486Z,99.90
2022-10-13T18:17:25.590Z,99.90
2022-10-13T18:19:53.935Z,99.90
2022-10-13T18:22:22.599Z,99.90
2022-10-13T18:24:56.689Z,99.90
2022-10-13T18:27:31.625Z,99.90
2022-10-13T18:30:03.618Z,99.90
2022-10-13T18:32:34.142Z,99.90
2022-10-13T18:35:03.138Z,99.90
2022-10-13T18:38:03.466Z,99.90
2022-10-13T18:40:34.526Z,99.90
2022-10-13T18:43:02.567Z,99.90
2022-10-13T18:45:30.513Z,99.90
2022-10-13T18:47:58.419Z,99.90
2022-10-13T18:50:26.436Z,99.90
2022-10-13T18:53:01.841Z,99.90
2022-10-13T18:55:30.908Z,99.90
2022-10-13T18:57:59.285Z,99.90
2022-10-13T19:00:27.425Z,99.90
2022-10-13T19:02:56.312Z,99.90
2022-10-13T19:05:23.851Z,99.90
2022-10-13T19:07:54.460Z,99.90
2022-10-13T19:10:22.344Z,99.90
2022-10-13T19:12:50.311Z,99.90
2022-10-13T19:15:21.198Z,99.90
2022-10-13T19:17:50.799Z,99.90
2022-10-13T19:20:18.460Z,99.90
2022-10-13T19:22:46.404Z,99.90
2022-10-13T19:25:16.169Z,99.90
2022-10-13T19:27:48.268Z,99.90
2022-10-13T19:30:16.013Z,99.90
2022-10-13T19:32:45.136Z,99.90
2022-10-13T19:35:14.367Z,99.90
2022-10-13T19:37:42.623Z,99.90
2022-10-13T19:40:17.123Z,99.90
2022-10-13T19:42:49.212Z,99.90
2022-10-13T19:45:17.142Z,99.90
2022-10-13T19:47:50.417Z,99.90
2022-10-13T19:50:18.328Z,99.90
2022-10-13T19:52:46.176Z,99.90
2022-10-13T19:55:17.866Z,99.90
2022-10-13T19:57:48.468Z,99.90
2022-10-13T20:00:19.214Z,99.90
2022-10-13T20:02:47.799Z,99.90
2022-10-13T20:05:15.730Z,99.90
2022-10-13T20:07:43.791Z,99.90
2022-10-13T20:10:12.289Z,99.90
2022-10-13T20:12:40.283Z,99.90
2022-10-13T20:15:11.719Z,99.90
2022-10-13T20:17:39.959Z,99.90
2022-10-13T20:20:08.191Z,99.90
2022-10-13T20:22:36.408Z,99.90
2022-10-13T20:25:04.443Z,99.90
2022-10-13T20:27:37.277Z,99.90
2022-10-13T20:30:05.874Z,99.90
2022-10-13T20:32:33.769Z,99.90
2022-10-13T20:35:01.720Z,99.90
2022-10-13T20:37:31.538Z,99.90
2022-10-13T20:40:10.902Z,99.90
2022-10-13T20:42:48.711Z,99.90
2022-10-13T20:45:17.791Z,99.90
2022-10-13T20:47:47.104Z,99.90
2022-10-13T20:50:20.136Z,99.90
2022-10-13T20:52:48.137Z,99.90
2022-10-13T20:55:15.967Z,99.90
2022-10-13T20:57:52.894Z,99.90
2022-10-13T21:00:21.231Z,99.90
2022-10-13T21:03:01.866Z,99.90
2022-10-13T21:05:32.092Z,99.90
2022-10-13T21:08:00.850Z,99.90
2022-10-13T21:10:31.229Z,99.90
2022-10-13T21:13:00.060Z,99.90
2022-10-13T21:15:39.762Z,99.90
2022-10-13T21:18:08.836Z,99.90
2022-10-13T21:20:39.646Z,99.90
2022-10-13T21:23:12.423Z,99.90
2022-10-13T21:25:43.879Z,99.90
2022-10-13T21:28:12.228Z,99.90
2022-10-13T21:30:40.689Z,99.90
2022-10-13T21:33:16.547Z,99.90
2022-10-13T21:35:44.857Z,99.90
2022-10-13T21:38:13.167Z,99.90
2022-10-13T21:40:45.351Z,99.90
2022-10-13T21:43:14.632Z,99.90
2022-10-13T21:45:42.520Z,99.90
2022-10-13T21:48:11.168Z,99.90
2022-10-13T21:50:38.667Z,99.90
2022-10-13T21:53:06.293Z,99.90
2022-10-13T21:55:34.349Z,99.90
2022-10-13T21:58:05.561Z,99.90
2022-10-13T22:00:34.011Z,99.90
2022-10-13T22:03:07.146Z,99.90
2022-10-13T22:05:35.382Z,99.90
2022-10-13T22:08:03.177Z,99.90
2022-10-13T22:10:32.703Z,99.90
2022-10-13T22:13:06.515Z,99.90
2022-10-13T22:15:34.898Z,99.90
2022-10-13T22:18:03.618Z,99.90
2022-10-13T22:20:36.412Z,99.90
2022-10-13T22:23:04.798Z,99.90
2022-10-13T22:25:33.832Z,99.90
2022-10-13T22:28:05.432Z,99.90
2022-10-13T22:30:37.264Z,99.90
2022-10-13T22:33:09.722Z,99.90
2022-10-13T22:35:39.192Z,99.90
2022-10-13T22:38:07.642Z,99.90
2022-10-13T22:40:35.828Z,99.90
2022-10-13T22:43:03.698Z,99.90
2022-10-13T22:45:31.513Z,99.90
2022-10-13T22:48:03.248Z,99.90
2022-10-13T22:50:31.304Z,99.90
2022-10-13T22:52:59.391Z,99.90
2022-10-13T22:55:28.600Z,99.90
2022-10-13T22:57:56.430Z,99.90
2022-10-13T23:00:25.026Z,99.90
2022-10-13T23:02:52.740Z,99.90
2022-10-13T23:05:21.138Z,99.90
2022-10-13T23:07:52.863Z,99.90
2022-10-13T23:10:24.416Z,99.90
2022-10-13T23:12:52.570Z,99.90
2022-10-13T23:15:20.871Z,99.90
2022-10-13T23:17:48.591Z,99.90
2022-10-13T23:20:23.856Z,99.90
2022-10-13T23:22:52.305Z,99.90
2022-10-13T23:25:20.334Z,99.90
2022-10-13T23:27:48.516Z,99.90
2022-10-13T23:30:17.930Z,99.90
2022-10-13T23:32:45.582Z,99.90
2022-10-13T23:35:13.348Z,99.90
2022-10-13T23:37:42.615Z,99.90
2022-10-13T23:40:10.754Z,99.90
2022-10-13T23:42:38.518Z,99.90
2022-10-13T23:45:06.633Z,99.90
2022-10-13T23:47:34.535Z,99.90
2022-10-13T23:50:11.118Z,99.90
2022-10-13T23:52:39.689Z,99.90
2022-10-13T23:55:10.500Z,99.90
2022-10-13T23:57:38.343Z,99.90
